Time;durP1;ratioP1;P1;durP2;ratioP2;P2;SDS_P1;SDS_P2;PMS_P1;PMS_P2;Temp;Humidity;BMP_temperature;BMP_pressure;BME280_temperature;BME280_humidity;BME280_pressure;Samples;Min_cycle;Max_cycle;Signal;HPM_P1;HPM_P2
2023/01/09 00:00:32;;;;;;;0.43;0.20;;;;;;;8.18;100.00;96987.94;4990996;28;20238;-59
2023/01/09 00:02:58;;;;;;;0.17;0.10;;;;;;;8.16;100.00;96987.31;4990876;28;20781;-59
2023/01/09 00:05:25;;;;;;;0.10;0.10;;;;;;;8.15;100.00;96983.09;4994140;28;20683;-58
2023/01/09 00:07:52;;;;;;;0.30;0.20;;;;;;;8.12;100.00;96995.44;4994347;28;20236;-58
2023/01/09 00:10:18;;;;;;;1.10;0.13;;;;;;;8.11;100.00;96995.59;4990208;28;20291;-60
2023/01/09 00:12:45;;;;;;;0.33;0.20;;;;;;;8.07;100.00;96981.34;4990080;28;20277;-58
2023/01/09 00:15:11;;;;;;;0.27;0.27;;;;;;;8.08;100.00;97001.16;4990017;28;20241;-59
2023/01/09 00:17:40;;;;;;;0.20;0.10;;;;;;;8.04;100.00;96979.91;4992932;28;20235;-58
2023/01/09 00:20:09;;;;;;;0.20;0.10;;;;;;;7.97;100.00;96984.19;4990267;28;20235;-58
2023/01/09 00:22:36;;;;;;;0.30;0.10;;;;;;;7.91;100.00;96987.50;4991046;28;20239;-58
2023/01/09 00:25:04;;;;;;;2.27;0.10;;;;;;;7.88;100.00;96980.06;4991042;28;20245;-58
2023/01/09 00:27:31;;;;;;;2.73;0.20;;;;;;;7.91;100.00;96969.31;4991295;28;20714;-58
2023/01/09 00:29:58;;;;;;;0.20;0.10;;;;;;;7.87;100.00;96958.47;4993275;28;20310;-57
2023/01/09 00:32:25;;;;;;;0.10;0.10;;;;;;;7.79;100.00;96959.31;4992939;28;21122;-58
2023/01/09 00:34:54;;;;;;;2.00;0.10;;;;;;;7.78;100.00;96956.91;4993739;28;20236;-59
2023/01/09 00:37:21;;;;;;;0.20;0.20;;;;;;;7.71;100.00;96948.22;4988439;28;20245;-58
2023/01/09 00:39:47;;;;;;;0.03;0.00;;;;;;;7.73;100.00;96965.22;4994107;28;20697;-58
2023/01/09 00:42:17;;;;;;;0.10;0.10;;;;;;;7.78;100.00;96967.31;4990453;28;20318;-59
2023/01/09 00:44:47;;;;;;;0.10;0.10;;;;;;;7.76;100.00;96951.09;4992894;28;20247;-58
2023/01/09 00:47:18;;;;;;;0.10;0.00;;;;;;;7.76;99.98;96964.06;4991568;28;20234;-58
2023/01/09 00:49:46;;;;;;;0.10;0.00;;;;;;;7.80;99.36;96941.97;4993753;28;20221;-59
2023/01/09 00:52:14;;;;;;;5.10;0.10;;;;;;;7.82;97.73;96945.19;4991345;28;20238;-58
2023/01/09 00:54:43;;;;;;;0.00;0.00;;;;;;;7.85;98.00;96939.66;4992418;28;20299;-59
2023/01/09 00:57:12;;;;;;;0.10;0.00;;;;;;;7.85;98.65;96957.84;4992487;28;20237;-59
2023/01/09 00:59:39;;;;;;;0.00;0.00;;;;;;;7.89;97.58;96938.31;4993170;28;20590;-58
2023/01/09 01:02:06;;;;;;;0.00;0.00;;;;;;;7.96;96.54;96947.00;4989045;28;20241;-59
2023/01/09 01:10:02;;;;;;;0.30;0.10;;;;;;;8.02;94.30;96955.06;4990126;28;20258;-58
2023/01/09 01:12:29;;;;;;;0.10;0.00;;;;;;;8.00;97.91;96957.88;4991963;28;20741;-59
2023/01/09 01:14:55;;;;;;;0.27;0.00;;;;;;;8.05;94.76;96960.75;4989505;28;20230;-59
2023/01/09 01:17:22;;;;;;;0.10;0.10;;;;;;;8.03;97.32;96977.47;4993539;28;20676;-59
2023/01/09 01:19:49;;;;;;;1.17;0.20;;;;;;;8.04;96.78;96971.31;4992426;28;20228;-58
2023/01/09 01:22:15;;;;;;;3.20;0.10;;;;;;;8.08;95.49;96951.78;4990736;28;20300;-59
2023/01/09 01:24:43;;;;;;;0.83;0.20;;;;;;;8.06;96.58;96971.94;4992910;28;20277;-58
2023/01/09 01:27:10;;;;;;;0.87;0.20;;;;;;;8.07;95.87;96978.75;4989639;28;20234;-59
2023/01/09 01:29:36;;;;;;;0.40;0.10;;;;;;;8.07;97.06;96989.97;4992555;28;20312;-59
2023/01/09 01:32:03;;;;;;;0.20;0.20;;;;;;;8.09;97.98;96982.81;4990715;28;20236;-59
2023/01/09 01:34:30;;;;;;;0.20;0.20;;;;;;;8.05;98.35;96991.94;4992424;28;20713;-59
2023/01/09 01:36:57;;;;;;;0.30;0.20;;;;;;;8.02;100.00;96999.25;4989264;28;20221;-59
2023/01/09 01:39:23;;;;;;;4.67;0.30;;;;;;;7.98;100.00;96993.63;4992050;28;20286;-57
2023/01/09 01:41:51;;;;;;;0.40;0.20;;;;;;;7.92;100.00;96983.91;4994001;28;20236;-59
2023/01/09 01:44:55;;;;;;;0.20;0.20;;;;;;;7.89;100.00;96981.66;4989184;28;20311;-59
2023/01/09 01:47:24;;;;;;;0.40;0.30;;;;;;;7.84;100.00;96982.19;4989762;28;20282;-58
2023/01/09 01:49:52;;;;;;;0.90;0.20;;;;;;;7.86;100.00;96980.25;4992104;28;20287;-59
2023/01/09 01:52:20;;;;;;;0.67;0.30;;;;;;;7.81;100.00;96977.34;4986806;28;20251;-59
2023/01/09 01:54:48;;;;;;;0.97;0.20;;;;;;;7.79;100.00;96976.72;4994254;28;20228;-59
2023/01/09 01:57:16;;;;;;;0.30;0.13;;;;;;;7.79;100.00;96968.94;4987787;28;20235;-59
2023/01/09 01:59:49;;;;;;;0.30;0.20;;;;;;;7.82;100.00;96987.56;4991848;28;20249;-59
2023/01/09 02:02:17;;;;;;;0.70;0.30;;;;;;;7.80;100.00;96986.91;4990424;28;20635;-59
2023/01/09 02:04:46;;;;;;;2.77;0.30;;;;;;;7.83;100.00;96975.38;4989883;28;20252;-58
2023/01/09 02:07:13;;;;;;;0.23;0.20;;;;;;;7.81;100.00;96969.56;4990797;28;20234;-59
2023/01/09 02:09:43;;;;;;;0.30;0.20;;;;;;;7.75;100.00;96971.03;4991695;28;20709;-58
2023/01/09 02:12:22;;;;;;;1.03;0.33;;;;;;;7.72;100.00;96986.19;4987804;28;20760;-58
2023/01/09 02:14:51;;;;;;;0.60;0.30;;;;;;;7.67;100.00;96995.31;4994227;28;20777;-59
2023/01/09 02:17:31;;;;;;;0.40;0.37;;;;;;;7.66;100.00;96998.88;4988712;28;21102;-58
2023/01/09 02:20:21;;;;;;;1.73;0.40;;;;;;;7.69;100.00;97010.69;4989274;28;20625;-58
2023/01/09 02:23:00;;;;;;;1.60;0.20;;;;;;;7.70;100.00;97012.31;4994833;28;20236;-59
2023/01/09 02:25:49;;;;;;;0.73;0.30;;;;;;;7.73;100.00;97005.97;4988687;28;20237;-59
2023/01/09 02:28:42;;;;;;;1.10;0.37;;;;;;;7.79;100.00;97013.09;4990569;28;20329;-59
2023/01/09 02:31:15;;;;;;;0.23;0.20;;;;;;;7.75;100.00;97017.81;4988533;28;20300;-59
2023/01/09 02:33:54;;;;;;;0.37;0.30;;;;;;;7.68;100.00;97007.31;4991872;28;20235;-58
2023/01/09 02:36:31;;;;;;;0.50;0.30;;;;;;;7.74;100.00;97015.38;4987899;28;20311;-59
2023/01/09 02:39:17;;;;;;;0.10;0.10;;;;;;;7.75;100.00;97030.78;4988447;28;20228;-59
2023/01/09 02:41:50;;;;;;;0.27;0.20;;;;;;;7.72;100.00;97048.50;4991942;28;20264;-59
2023/01/09 02:44:20;;;;;;;0.20;0.20;;;;;;;7.67;100.00;97059.41;4989868;28;20302;-59
2023/01/09 02:46:48;;;;;;;1.60;0.27;;;;;;;7.74;100.00;97075.13;4992392;28;20229;-59
2023/01/09 02:49:16;;;;;;;0.97;0.40;;;;;;;7.79;100.00;97084.00;4988886;28;22531;-58
2023/01/09 02:51:51;;;;;;;0.57;0.40;;;;;;;7.59;100.00;97132.97;4989924;28;20682;-59
2023/01/09 02:54:32;;;;;;;2.00;0.30;;;;;;;7.18;100.00;97140.88;4994128;28;20236;-57
2023/01/09 02:57:16;;;;;;;0.60;0.30;;;;;;;6.76;100.00;97150.50;4999691;28;20291;-58
2023/01/09 02:59:56;;;;;;;1.50;0.77;;;;;;;6.61;100.00;97145.97;5001056;28;20769;-58
2023/01/09 03:02:37;;;;;;;1.33;0.30;;;;;;;6.43;100.00;97166.06;4999629;28;20656;-58
2023/01/09 03:05:10;;;;;;;0.63;0.20;;;;;;;6.36;100.00;97158.13;4998833;28;20227;-58
2023/01/09 03:07:43;;;;;;;1.27;0.23;;;;;;;6.30;100.00;97167.34;5002784;28;20228;-57
2023/01/09 03:10:18;;;;;;;0.40;0.20;;;;;;;6.25;100.00;97179.97;5000126;28;20212;-57
2023/01/09 03:12:48;;;;;;;1.20;0.30;;;;;;;6.23;100.00;97186.28;5003563;28;20291;-57
2023/01/09 03:15:18;;;;;;;1.80;0.30;;;;;;;6.25;100.00;97194.69;5000475;28;20330;-58
2023/01/09 03:17:50;;;;;;;1.53;0.20;;;;;;;6.21;100.00;97202.00;5003020;28;20283;-58
2023/01/09 03:20:21;;;;;;;0.83;0.30;;;;;;;6.22;100.00;97210.56;5016725;28;20232;-58
2023/01/09 03:22:53;;;;;;;1.33;0.20;;;;;;;6.17;100.00;97214.44;5004316;28;20639;-58
2023/01/09 03:25:20;;;;;;;2.33;0.20;;;;;;;6.16;100.00;97223.19;5001304;28;20240;-58
2023/01/09 03:27:47;;;;;;;2.73;0.30;;;;;;;6.15;100.00;97231.91;5004384;28;20245;-58
2023/01/09 03:30:14;;;;;;;0.20;0.17;;;;;;;6.12;100.00;97240.00;4999917;28;20231;-58
2023/01/09 03:32:40;;;;;;;0.30;0.20;;;;;;;6.11;100.00;97242.75;5002853;28;20244;-59
2023/01/09 03:35:09;;;;;;;2.27;0.33;;;;;;;6.05;100.00;97251.97;4999799;28;20240;-56
2023/01/09 03:37:35;;;;;;;0.60;0.20;;;;;;;6.05;100.00;97255.38;5003833;28;20269;-59
2023/01/09 03:40:02;;;;;;;0.43;0.20;;;;;;;6.03;100.00;97249.53;5001505;28;20298;-58
2023/01/09 03:42:29;;;;;;;0.20;0.10;;;;;;;6.01;100.00;97261.00;5002680;28;20550;-57
2023/01/09 03:44:55;;;;;;;0.20;0.10;;;;;;;5.97;100.00;97257.91;5000614;28;20639;-58
2023/01/09 03:47:22;;;;;;;0.10;0.10;;;;;;;5.96;100.00;97261.47;5003898;28;20295;-57
2023/01/09 03:49:48;;;;;;;0.10;0.10;;;;;;;5.97;100.00;97270.84;5003689;28;20228;-58
2023/01/09 03:52:16;;;;;;;0.57;0.20;;;;;;;5.95;100.00;97272.78;5001321;28;30317;-57
2023/01/09 03:54:43;;;;;;;3.10;0.33;;;;;;;5.96;100.00;97289.13;5003690;28;20233;-58
2023/01/09 03:57:09;;;;;;;1.67;0.30;;;;;;;5.96;100.00;97277.00;5001117;28;20236;-59
2023/01/09 03:59:36;;;;;;;0.37;0.10;;;;;;;5.94;100.00;97283.28;5004452;28;20244;-59
2023/01/09 04:04:44;;;;;;;1.30;0.10;;;;;;;5.93;100.00;97287.66;5433230;22;20269;-58
2023/01/09 04:07:11;;;;;;;0.53;0.30;;;;;;;5.95;100.00;97303.88;5016368;28;20231;-58
2023/01/09 04:09:38;;;;;;;1.60;0.20;;;;;;;5.94;100.00;97304.81;5022625;28;20706;-57
2023/01/09 04:12:06;;;;;;;2.33;0.20;;;;;;;5.94;100.00;97314.34;5021268;28;20223;-58
2023/01/09 04:14:32;;;;;;;0.10;0.10;;;;;;;5.90;100.00;97304.31;5023146;28;20289;-58
2023/01/09 04:16:59;;;;;;;0.10;0.10;;;;;;;5.87;100.00;97314.97;5018045;28;20224;-57
2023/01/09 04:19:25;;;;;;;0.30;0.13;;;;;;;5.86;100.00;97300.41;5023054;28;20227;-58
2023/01/09 04:21:52;;;;;;;1.50;0.10;;;;;;;5.85;100.00;97310.94;5025224;28;20227;-58
2023/01/09 04:24:19;;;;;;;0.23;0.10;;;;;;;5.79;100.00;97329.66;5023890;28;20238;-59
2023/01/09 04:26:47;;;;;;;0.10;0.10;;;;;;;5.76;100.00;97330.78;5026923;28;20298;-59
2023/01/09 04:29:14;;;;;;;1.70;0.20;;;;;;;5.70;100.00;97341.75;5023926;28;20223;-59
2023/01/09 04:31:40;;;;;;;0.20;0.10;;;;;;;5.66;100.00;97353.38;5244133;22;20289;-55
2023/01/09 04:34:07;;;;;;;1.50;0.10;;;;;;;5.64;100.00;97353.50;5020873;28;20211;-53
2023/01/09 04:36:34;;;;;;;0.10;0.10;;;;;;;5.68;100.00;97352.25;5027255;28;20730;-54
2023/01/09 04:39:01;;;;;;;0.10;0.10;;;;;;;5.71;100.00;97372.66;5023923;28;20232;-53
2023/01/09 04:44:13;;;;;;;0.27;0.10;;;;;;;5.74;99.02;97369.75;5010886;28;20230;-52
2023/01/09 04:46:40;;;;;;;0.23;0.10;;;;;;;5.72;98.82;97369.09;5027070;28;20224;-55
2023/01/09 04:49:06;;;;;;;0.37;0.10;;;;;;;5.72;97.11;97363.94;5025518;28;20227;-53
2023/01/09 04:51:33;;;;;;;0.30;0.10;;;;;;;5.70;99.30;97375.41;5027095;28;20890;-52
2023/01/09 04:53:59;;;;;;;0.40;0.10;;;;;;;5.51;99.19;97382.38;5031538;28;20271;-54
2023/01/09 04:56:26;;;;;;;0.30;0.10;;;;;;;5.37;99.25;97381.13;5027200;28;20285;-53
2023/01/09 04:58:53;;;;;;;2.57;0.83;;;;;;;5.25;100.00;97377.16;5026763;28;20228;-54
2023/01/09 05:01:21;;;;;;;0.17;0.10;;;;;;;5.22;100.00;97382.63;5023941;28;20759;-55
2023/01/09 05:03:47;;;;;;;2.47;0.20;;;;;;;5.16;100.00;97379.66;5026232;28;20228;-53
2023/01/09 05:06:14;;;;;;;1.60;0.23;;;;;;;5.14;100.00;97371.22;5023316;28;20228;-53
2023/01/09 05:08:40;;;;;;;1.90;0.17;;;;;;;5.15;100.00;97380.63;5027078;28;20231;-54
2023/01/09 05:11:07;;;;;;;0.87;0.20;;;;;;;5.19;100.00;97388.09;5023143;28;20224;-55
2023/01/09 05:13:34;;;;;;;0.30;0.20;;;;;;;5.27;99.92;97401.09;5025856;28;20285;-53
2023/01/09 05:16:01;;;;;;;3.13;0.20;;;;;;;5.37;99.08;97395.84;5023978;28;20220;-54
2023/01/09 05:18:29;;;;;;;0.50;0.30;;;;;;;5.39;98.23;97391.34;5026920;28;20232;-53
2023/01/09 05:20:55;;;;;;;1.60;0.27;;;;;;;5.39;98.31;97375.81;5023650;28;20231;-55
2023/01/09 05:23:22;;;;;;;0.70;0.27;;;;;;;5.32;96.65;97366.06;5025414;28;20231;-53
2023/01/09 05:25:48;;;;;;;3.80;0.80;;;;;;;5.23;99.08;97373.91;5026755;28;20299;-54
2023/01/09 05:28:15;;;;;;;2.47;0.90;;;;;;;5.19;98.29;97382.91;5023898;28;20297;-55
2023/01/09 05:30:41;;;;;;;2.90;0.33;;;;;;;5.11;96.98;97389.63;5026972;28;20238;-54
2023/01/09 05:33:08;;;;;;;1.23;0.30;;;;;;;5.31;95.11;97394.66;5022666;28;20228;-53
2023/01/09 05:35:36;;;;;;;2.10;0.50;;;;;;;5.36;96.42;97389.03;5025840;28;20251;-54
2023/01/09 05:38:02;;;;;;;0.50;0.20;;;;;;;5.31;95.93;97389.47;5023548;28;20769;-53
2023/01/09 05:40:29;;;;;;;2.33;0.40;;;;;;;5.45;93.33;97403.69;5026697;28;20235;-52
2023/01/09 05:42:56;;;;;;;4.10;0.70;;;;;;;5.51;94.82;97405.69;5022723;28;20236;-54
2023/01/09 05:45:22;;;;;;;4.70;0.47;;;;;;;5.64;91.32;97394.13;5026426;28;20781;-55
2023/01/09 05:47:49;;;;;;;8.17;0.90;;;;;;;5.66;92.85;97376.69;5025451;28;20769;-52
2023/01/09 05:50:15;;;;;;;1.27;0.30;;;;;;;5.72;91.09;97404.56;5023204;28;20683;-55
2023/01/09 05:52:43;;;;;;;3.33;0.50;;;;;;;5.73;92.33;97412.16;5025912;28;20233;-55
2023/01/09 05:55:12;;;;;;;4.63;0.57;;;;;;;5.78;90.29;97400.53;5022816;28;20242;-55
2023/01/09 05:57:38;;;;;;;4.23;1.30;;;;;;;5.79;88.97;97418.53;5024332;28;20227;-54
2023/01/09 06:00:06;;;;;;;14.57;3.87;;;;;;;5.81;90.08;97424.38;5022707;28;20319;-53
2023/01/09 06:02:33;;;;;;;3.03;0.40;;;;;;;5.84;89.26;97428.44;5026018;28;20234;-53
2023/01/09 06:04:59;;;;;;;5.57;0.90;;;;;;;5.87;87.38;97412.59;5021785;28;20285;-54
2023/01/09 06:07:26;;;;;;;1.83;0.50;;;;;;;5.95;86.64;97425.59;5025771;28;20228;-53
2023/01/09 06:09:54;;;;;;;5.23;0.43;;;;;;;5.93;85.49;97418.94;5023601;28;20933;-53
2023/01/09 06:12:20;;;;;;;3.67;0.60;;;;;;;5.88;88.15;97422.78;5022436;28;20228;-54
2023/01/09 06:14:47;;;;;;;4.93;0.70;;;;;;;5.87;86.86;97428.13;5025035;28;20232;-53
2023/01/09 06:17:13;;;;;;;7.00;0.80;;;;;;;5.90;86.69;97428.63;5021772;28;20286;-53
2023/01/09 06:19:40;;;;;;;2.63;0.87;;;;;;;5.93;83.55;97424.09;5025134;28;20223;-54
2023/01/09 06:22:07;;;;;;;6.70;0.77;;;;;;;5.90;86.36;97422.66;5022346;28;20302;-53
2023/01/09 06:24:33;;;;;;;3.97;1.00;;;;;;;5.90;83.96;97433.00;5025724;28;20294;-53
2023/01/09 06:27:01;;;;;;;75.47;46.73;;;;;;;5.96;82.69;97445.34;5022789;28;20231;-54
2023/01/09 06:29:28;;;;;;;9.40;2.43;;;;;;;5.95;84.33;97441.13;5025220;28;20246;-55
2023/01/09 06:31:54;;;;;;;7.23;1.13;;;;;;;5.96;84.00;97445.34;5024831;28;20247;-55
2023/01/09 06:34:21;;;;;;;27.77;24.57;;;;;;;5.95;85.18;97429.94;5021667;28;20238;-55
2023/01/09 06:36:47;;;;;;;3.30;0.80;;;;;;;5.95;84.37;97437.72;5008772;28;20236;-54
2023/01/09 06:39:14;;;;;;;6.10;2.30;;;;;;;5.98;82.80;97438.25;5021601;28;20224;-53
2023/01/09 06:41:40;;;;;;;6.10;1.70;;;;;;;5.96;83.38;97441.94;5024901;28;20231;-54
2023/01/09 06:44:08;;;;;;;2.43;0.53;;;;;;;5.98;81.87;97440.84;5021265;28;20749;-53
2023/01/09 06:46:35;;;;;;;4.57;0.80;;;;;;;6.00;81.50;97445.84;5025331;28;20231;-54
2023/01/09 06:49:01;;;;;;;5.93;0.93;;;;;;;5.98;83.11;97437.41;5022096;28;20239;-54
2023/01/09 06:51:28;;;;;;;3.97;0.60;;;;;;;6.02;83.09;97439.59;5025134;28;20228;-54
2023/01/09 06:53:55;;;;;;;6.63;0.87;;;;;;;6.01;83.87;97440.56;5024988;28;20224;-53
2023/01/09 06:56:21;;;;;;;7.43;1.10;;;;;;;5.98;82.08;97440.00;5022684;28;20246;-55
2023/01/09 06:58:48;;;;;;;4.40;1.27;;;;;;;5.97;82.58;97439.22;5024558;28;20231;-54
2023/01/09 07:01:16;;;;;;;7.37;0.60;;;;;;;5.98;83.42;97440.00;5021770;28;20294;-53
2023/01/09 07:03:42;;;;;;;7.28;1.10;;;;;;;5.99;83.41;97429.50;5023222;28;20434;-52
2023/01/09 07:06:09;;;;;;;4.93;0.90;;;;;;;6.05;82.49;97428.13;5021937;28;20241;-52
2023/01/09 07:08:36;;;;;;;2.27;0.63;;;;;;;6.08;80.25;97429.59;5024960;28;20236;-52
2023/01/09 07:11:02;;;;;;;3.63;0.50;;;;;;;6.06;82.63;97411.59;5021840;28;20261;-54
2023/01/09 07:13:29;;;;;;;10.57;3.27;;;;;;;6.07;81.79;97415.03;5024556;28;20240;-52
2023/01/09 07:15:55;;;;;;;7.30;1.00;;;;;;;6.08;81.50;97414.06;5023973;28;20234;-53
2023/01/09 07:18:23;;;;;;;5.17;1.50;;;;;;;6.10;81.72;97428.47;5022732;28;20235;-53
2023/01/09 07:20:50;;;;;;;3.33;0.60;;;;;;;6.12;81.31;97436.91;5024987;28;20247;-53
2023/01/09 07:23:17;;;;;;;3.90;0.90;;;;;;;6.11;81.40;97440.47;5021692;28;20248;-52
2023/01/09 07:25:44;;;;;;;3.17;0.50;;;;;;;6.12;81.62;97431.72;5024573;28;20231;-53
2023/01/09 07:28:11;;;;;;;3.03;0.60;;;;;;;6.15;81.07;97441.78;5019874;28;20231;-52
2023/01/09 07:30:38;;;;;;;2.13;0.53;;;;;;;6.19;81.15;97432.75;5023007;28;20235;-53
2023/01/09 07:33:04;;;;;;;4.00;1.53;;;;;;;6.26;78.30;97453.69;5021517;28;20608;-54
2023/01/09 07:35:32;;;;;;;3.93;0.70;;;;;;;6.29;78.98;97444.78;5024775;28;20244;-53
2023/01/09 07:37:59;;;;;;;4.03;0.63;;;;;;;6.41;80.76;97442.75;5021679;28;20228;-53
2023/01/09 07:40:25;;;;;;;2.93;0.70;;;;;;;6.47;77.90;97442.13;5023667;28;20227;-53
2023/01/09 07:42:52;;;;;;;4.33;0.60;;;;;;;6.49;78.91;97447.97;5024232;28;20286;-53
2023/01/09 07:45:19;;;;;;;2.57;0.60;;;;;;;6.55;77.63;97447.34;5020396;28;20242;-52
2023/01/09 07:47:45;;;;;;;2.50;0.63;;;;;;;6.54;78.20;97447.53;5023794;28;20236;-52
2023/01/09 07:50:12;;;;;;;4.37;0.40;;;;;;;6.56;78.37;97458.56;5008722;28;20236;-52
2023/01/09 07:52:40;;;;;;;3.57;0.60;;;;;;;6.57;78.35;97442.84;5024850;28;20318;-53
2023/01/09 07:55:08;;;;;;;2.57;0.53;;;;;;;6.54;78.57;97458.69;5020694;28;20683;-52
2023/01/09 07:57:34;;;;;;;3.57;1.87;;;;;;;6.55;78.73;97459.53;5027236;28;20224;-53
2023/01/09 08:00:02;;;;;;;1.73;0.63;;;;;;;6.56;78.16;97448.19;5023451;28;20223;-53
2023/01/09 08:02:37;;;;;;;4.40;0.80;;;;;;;6.57;77.83;97447.22;5027782;28;20237;-52
2023/01/09 08:05:05;;;;;;;4.17;0.50;;;;;;;6.53;78.87;97462.25;5022491;28;20241;-53
2023/01/09 08:07:31;;;;;;;4.57;0.47;;;;;;;6.50;78.17;97452.19;5027260;28;20695;-52
2023/01/09 08:09:59;;;;;;;4.70;2.30;;;;;;;6.47;78.94;97460.28;5024045;28;20626;-53
2023/01/09 08:12:26;;;;;;;3.83;1.67;;;;;;;6.44;79.26;97465.75;5027906;28;20650;-52
2023/01/09 08:14:52;;;;;;;4.27;0.60;;;;;;;6.45;78.77;97464.78;5027748;28;20278;-53
2023/01/09 08:17:19;;;;;;;3.50;1.10;;;;;;;6.55;78.35;97462.13;5025423;28;20228;-52
2023/01/09 08:19:45;;;;;;;1.53;0.70;;;;;;;6.62;78.08;97455.34;5028053;28;20618;-53
2023/01/09 08:22:12;;;;;;;6.53;2.73;;;;;;;6.59;80.26;97464.22;5024849;28;20246;-52
2023/01/09 08:24:38;;;;;;;2.93;0.70;;;;;;;6.56;77.99;97472.31;5026404;28;20286;-53
2023/01/09 08:27:06;;;;;;;3.20;0.60;;;;;;;6.54;78.20;97457.91;5024234;28;20235;-54
2023/01/09 08:29:33;;;;;;;1.93;0.30;;;;;;;6.53;77.82;97477.81;5026717;28;20763;-52
2023/01/09 08:32:00;;;;;;;4.13;0.40;;;;;;;6.58;79.08;97460.00;5024157;28;20695;-52
2023/01/09 08:34:26;;;;;;;5.30;1.20;;;;;;;6.65;78.98;97468.81;5027145;28;20231;-53
2023/01/09 08:36:53;;;;;;;1.60;0.50;;;;;;;6.73;78.24;97470.63;5026992;28;20232;-52
2023/01/09 08:39:19;;;;;;;3.17;0.73;;;;;;;6.84;76.25;97469.53;5024044;28;20229;-53
2023/01/09 08:47:20;;;;;;;5.53;2.73;;;;;;;7.04;76.76;97472.69;5023100;28;20385;-53
2023/01/09 08:49:46;;;;;;;2.60;1.27;;;;;;;7.08;76.08;97465.41;5027087;28;20262;-52
2023/01/09 08:52:13;;;;;;;2.27;0.30;;;;;;;7.19;75.83;97477.28;5024147;28;20699;-54
2023/01/09 08:54:40;;;;;;;3.77;0.70;;;;;;;7.19;76.77;97488.50;5027174;28;20251;-54
2023/01/09 08:57:07;;;;;;;2.37;0.60;;;;;;;7.26;75.17;97483.47;5025435;28;20234;-52
2023/01/09 08:59:35;;;;;;;1.70;0.47;;;;;;;7.22;74.32;97474.38;5027042;28;20239;-52
2023/01/09 09:02:02;;;;;;;2.43;0.27;;;;;;;7.29;73.56;97475.38;5024202;28;20305;-54
2023/01/09 09:04:29;;;;;;;1.97;0.40;;;;;;;7.35;74.36;97477.34;5025709;28;20800;-52
2023/01/09 09:06:55;;;;;;;1.90;0.40;;;;;;;7.32;73.76;97462.06;5026368;28;20224;-54
2023/01/09 09:09:22;;;;;;;4.63;0.47;;;;;;;7.47;73.14;97466.66;5024632;28;20281;-52
2023/01/09 09:11:48;;;;;;;2.20;0.37;;;;;;;7.45;73.42;97463.41;5026761;28;20247;-54
2023/01/09 09:17:01;;;;;;;3.57;0.70;;;;;;;7.46;72.87;97465.81;5024100;28;20229;-53
2023/01/09 09:19:28;;;;;;;4.40;0.50;;;;;;;7.39;73.20;97473.44;5026077;28;20289;-52
2023/01/09 09:21:54;;;;;;;4.10;0.50;;;;;;;7.34;72.68;97467.91;5026795;28;20231;-52
2023/01/09 09:24:21;;;;;;;3.17;0.87;;;;;;;7.39;73.56;97488.22;5023693;28;20240;-54
2023/01/09 09:26:47;;;;;;;2.97;0.50;;;;;;;7.47;72.80;97477.84;5026541;28;20236;-53
2023/01/09 09:29:14;;;;;;;3.07;0.70;;;;;;;7.59;72.11;97480.13;5022212;28;20290;-52
2023/01/09 09:31:41;;;;;;;2.80;0.70;;;;;;;7.56;73.10;97480.44;5040570;28;20731;-52
2023/01/09 09:34:09;;;;;;;2.53;0.37;;;;;;;7.71;72.82;97481.44;5023304;28;20346;-54
2023/01/09 09:36:36;;;;;;;4.57;0.63;;;;;;;7.60;71.82;97492.16;5026172;28;20255;-54
2023/01/09 09:39:02;;;;;;;3.47;0.70;;;;;;;7.72;72.13;97493.47;5022998;28;20224;-53
2023/01/09 09:44:43;;;;;;;2.67;0.50;;;;;;;7.66;71.17;97491.50;5023104;28;20227;-52
2023/01/09 09:47:25;;;;;;;6.43;0.50;;;;;;;7.71;72.69;97486.66;5022985;28;20263;-52
2023/01/09 09:50:05;;;;;;;4.07;0.70;;;;;;;7.83;71.20;97490.56;5026159;28;20236;-54
2023/01/09 09:52:41;;;;;;;19.03;9.07;;;;;;;7.72;72.45;97497.84;5023684;28;20233;-54
2023/01/09 09:55:17;;;;;;;26.03;11.67;;;;;;;7.85;70.93;97492.19;5023115;28;20700;-53
2023/01/09 09:57:44;;;;;;;11.23;6.63;;;;;;;7.68;71.01;97490.38;5025766;28;20255;-54
2023/01/09 10:00:18;;;;;;;0.93;0.70;;;;;;;7.54;72.19;97502.19;5022446;28;20286;-57
2023/01/09 10:02:50;;;;;;;1.47;0.40;;;;;;;7.54;74.00;97488.41;5003397;28;20232;-52
2023/01/09 10:05:24;;;;;;;3.40;0.60;;;;;;;7.63;71.58;97482.25;5015283;28;20231;-54
2023/01/09 10:07:52;;;;;;;4.63;0.60;;;;;;;7.47;72.31;97485.63;5023443;28;20235;-53
2023/01/09 10:10:27;;;;;;;3.83;0.80;;;;;;;7.47;71.84;97480.44;5020654;28;20240;-52
2023/01/09 10:12:55;;;;;;;2.60;0.60;;;;;;;7.46;73.23;97486.59;5022871;28;20687;-52
2023/01/09 10:15:33;;;;;;;6.20;0.90;;;;;;;7.45;72.81;97489.38;5021742;28;20241;-52
2023/01/09 10:18:13;;;;;;;4.73;1.10;;;;;;;7.50;71.96;97485.31;5020463;28;20599;-52
2023/01/09 10:20:50;;;;;;;1.97;0.50;;;;;;;7.62;72.38;97483.25;5024361;28;20601;-54
2023/01/09 10:23:30;;;;;;;1.83;0.70;;;;;;;7.80;72.96;97492.69;5020880;28;20282;-53
2023/01/09 10:26:00;;;;;;;9.23;1.47;;;;;;;7.84;73.43;97483.59;5020572;28;20233;-54
2023/01/09 10:28:43;;;;;;;7.10;2.83;;;;;;;7.84;71.52;97483.59;5025176;28;20863;-53
2023/01/09 10:31:17;;;;;;;4.27;1.93;;;;;;;7.65;72.22;97474.28;5021065;28;20256;-52
2023/01/09 10:33:58;;;;;;;6.70;0.90;;;;;;;7.64;73.55;97475.28;5023731;28;20641;-54
2023/01/09 10:36:44;;;;;;;4.87;0.77;;;;;;;7.52;74.63;97482.56;5021025;28;20635;-52
2023/01/09 10:39:18;;;;;;;4.13;0.67;;;;;;;7.45;74.40;97482.38;5020430;28;20634;-52
2023/01/09 10:41:53;;;;;;;3.60;1.10;;;;;;;7.35;77.49;97463.56;5023669;28;20236;-52
2023/01/09 10:44:26;;;;;;;3.60;0.80;;;;;;;7.29;76.78;97462.41;5021191;28;20627;-52
2023/01/09 10:46:55;;;;;;;2.03;0.73;;;;;;;7.36;77.77;97463.38;5024735;28;20239;-52
2023/01/09 10:49:23;;;;;;;6.80;0.87;;;;;;;7.31;80.14;97477.81;5018093;28;20251;-52
2023/01/09 10:51:56;;;;;;;4.28;1.10;;;;;;;7.20;80.07;97469.34;5023556;28;20441;-53
2023/01/09 10:54:23;;;;;;;6.73;1.17;;;;;;;7.16;81.64;97472.41;5020962;28;20243;-54
2023/01/09 10:56:55;;;;;;;4.47;0.90;;;;;;;7.17;82.54;97472.25;5023197;28;20293;-54
2023/01/09 10:59:22;;;;;;;4.47;0.83;;;;;;;7.23;86.19;97479.41;5019631;28;20545;-52
2023/01/09 11:01:48;;;;;;;3.67;1.33;;;;;;;7.12;85.36;97495.28;5024513;28;20243;-52
2023/01/09 11:04:23;;;;;;;6.97;1.60;;;;;;;7.06;85.17;97475.16;5021178;28;20297;-52
2023/01/09 11:06:56;;;;;;;3.30;0.87;;;;;;;6.89;87.38;97479.47;5024161;28;20239;-53
2023/01/09 11:09:23;;;;;;;5.17;1.30;;;;;;;6.84;87.26;97477.31;5021126;28;20235;-52
2023/01/09 11:11:49;;;;;;;2.93;0.90;;;;;;;6.89;87.50;97474.28;5021840;28;20446;-52
2023/01/09 11:14:18;;;;;;;4.50;1.27;;;;;;;6.86;87.92;97487.56;5019408;28;20239;-52
2023/01/09 11:16:52;;;;;;;5.67;1.23;;;;;;;6.79;89.33;97490.78;5039963;28;20699;-54
2023/01/09 11:19:19;;;;;;;8.93;4.57;;;;;;;6.78;89.78;97493.50;5019439;28;20293;-53
2023/01/09 11:21:46;;;;;;;3.77;1.00;;;;;;;6.66;91.86;97495.56;5024262;28;20240;-55
2023/01/09 11:24:33;;;;;;;3.37;0.80;;;;;;;6.67;90.96;97488.59;5021221;28;20243;-55
2023/01/09 11:27:24;;;;;;;4.67;0.63;;;;;;;6.60;91.51;97503.94;5020316;28;20297;-54
2023/01/09 11:30:18;;;;;;;7.00;1.30;;;;;;;6.64;92.67;97500.88;5023338;28;20232;-53
2023/01/09 11:32:46;;;;;;;8.40;2.57;;;;;;;6.61;93.37;97503.78;5019252;28;20297;-54
2023/01/09 11:35:20;;;;;;;7.17;2.50;;;;;;;6.55;93.72;97504.41;5020580;28;20278;-52
2023/01/09 11:37:50;;;;;;;3.90;0.90;;;;;;;6.55;92.50;97493.22;5023350;28;20824;-53
2023/01/09 11:40:21;;;;;;;4.87;0.90;;;;;;;6.55;92.36;97491.44;5020995;28;20583;-53
2023/01/09 11:43:16;;;;;;;7.03;1.07;;;;;;;6.71;90.88;97501.09;5022282;28;20242;-54
2023/01/09 11:45:50;;;;;;;7.40;2.67;;;;;;;6.76;93.42;97490.25;5010395;28;20232;-54
2023/01/09 11:48:38;;;;;;;7.43;1.40;;;;;;;6.81;92.33;97511.34;5021018;28;20377;-53
2023/01/09 11:51:17;;;;;;;4.03;1.70;;;;;;;6.76;93.13;97517.00;5021261;28;20721;-52
2023/01/09 11:53:55;;;;;;;8.00;1.83;;;;;;;6.75;92.31;97511.97;5023818;28;20219;-54
2023/01/09 11:56:24;;;;;;;6.13;0.87;;;;;;;6.78;93.86;97511.66;5020070;28;20227;-52
2023/01/09 11:58:51;;;;;;;8.60;1.27;;;;;;;6.73;93.90;97503.53;5022886;28;20230;-52
2023/01/09 12:01:54;;;;;;;7.60;1.37;;;;;;;6.72;94.29;97501.91;5021322;28;20254;-52
2023/01/09 12:04:27;;;;;;;7.30;0.93;;;;;;;6.66;94.24;97485.19;4941205;28;20230;-53
2023/01/09 12:07:11;;;;;;;7.47;1.20;;;;;;;6.77;94.03;97487.53;5011970;28;20742;-53
2023/01/09 12:09:48;;;;;;;7.27;1.03;;;;;;;6.81;92.41;97493.19;5020116;28;20232;-53
2023/01/09 12:12:28;;;;;;;6.20;1.33;;;;;;;6.76;93.17;97491.06;5018633;28;20228;-54